createdAt,value
2023-03-31T00:00:18.706Z,7.14
2023-03-31T00:02:46.137Z,7.06
2023-03-31T00:05:17.885Z,7.03
2023-03-31T00:07:46.166Z,6.40
2023-03-31T00:10:18.207Z,5.25
2023-03-31T00:12:46.447Z,5.84
2023-03-31T00:15:13.360Z,5.38
2023-03-31T00:17:40.353Z,5.61
2023-03-31T00:20:12.319Z,5.30
2023-03-31T00:22:42.086Z,5.40
2023-03-31T00:25:11.102Z,4.93
2023-03-31T00:27:37.955Z,5.00
2023-03-31T00:30:05.319Z,5.27
2023-03-31T00:32:33.444Z,4.83
2023-03-31T00:35:02.284Z,4.95
2023-03-31T00:37:29.601Z,4.86
2023-03-31T00:39:57.082Z,4.88
2023-03-31T00:42:23.955Z,4.56
2023-03-31T00:45:09.270Z,4.47
2023-03-31T00:47:36.017Z,4.58
2023-03-31T00:50:02.681Z,4.76
2023-03-31T00:52:37.466Z,4.60
2023-03-31T00:55:12.302Z,4.32
2023-03-31T00:57:41.769Z,4.54
2023-03-31T01:00:17.243Z,4.27
2023-03-31T01:02:52.417Z,4.40
2023-03-31T01:05:25.975Z,4.26
2023-03-31T01:07:54.598Z,4.08
2023-03-31T01:10:22.565Z,4.45
2023-03-31T01:12:53.807Z,4.68
2023-03-31T01:15:21.688Z,4.60
2023-03-31T01:17:51.202Z,4.63
2023-03-31T01:20:27.155Z,4.57
2023-03-31T01:22:59.513Z,4.39
2023-03-31T01:25:43.483Z,4.36
2023-03-31T01:28:32.207Z,4.30
2023-03-31T01:31:27.130Z,3.91
2023-03-31T01:34:25.306Z,3.99
2023-03-31T01:37:23.205Z,3.95
2023-03-31T01:40:27.496Z,3.87
2023-03-31T01:43:16.094Z,4.44
2023-03-31T01:45:45.849Z,4.28
2023-03-31T01:48:20.422Z,4.44
2023-03-31T01:50:56.465Z,4.62
2023-03-31T01:53:29.895Z,4.70
2023-03-31T01:56:07.096Z,4.65
2023-03-31T01:58:40.891Z,4.60
2023-03-31T02:01:37.898Z,5.00
2023-03-31T02:04:22.688Z,4.92
2023-03-31T02:06:57.922Z,4.70
2023-03-31T02:09:31.804Z,4.62
2023-03-31T02:12:00.478Z,5.07
2023-03-31T02:14:31.313Z,5.34
2023-03-31T02:17:02.313Z,5.46
2023-03-31T02:19:36.168Z,5.24
2023-03-31T02:22:06.595Z,5.35
2023-03-31T02:24:36.793Z,4.91
2023-03-31T02:27:23.717Z,4.56
2023-03-31T02:29:51.594Z,4.95
2023-03-31T02:32:38.212Z,5.27
2023-03-31T02:35:09.528Z,4.69
2023-03-31T02:37:38.206Z,4.79
2023-03-31T02:40:13.330Z,5.25
2023-03-31T02:42:41.838Z,4.86
2023-03-31T02:45:37.687Z,4.76
2023-03-31T02:48:09.665Z,4.75
2023-03-31T02:50:45.358Z,4.81
2023-03-31T02:53:35.400Z,5.09
2023-03-31T02:56:14.064Z,5.26
2023-03-31T02:59:16.636Z,4.81
2023-03-31T03:02:02.103Z,4.71
2023-03-31T03:04:41.739Z,4.95
2023-03-31T03:07:19.398Z,4.97
2023-03-31T03:09:56.016Z,4.22
2023-03-31T03:12:35.813Z,4.39
2023-03-31T03:15:13.311Z,4.10
2023-03-31T03:17:46.393Z,4.26
2023-03-31T03:20:16.184Z,4.06
2023-03-31T03:22:43.293Z,4.00
2023-03-31T03:25:13.526Z,4.13
2023-03-31T03:27:40.900Z,4.39
2023-03-31T03:30:10.736Z,3.92
2023-03-31T03:32:37.595Z,3.77
2023-03-31T03:35:06.156Z,3.87
2023-03-31T03:37:33.154Z,3.75
2023-03-31T03:39:59.776Z,3.81
2023-03-31T03:42:26.363Z,3.89
2023-03-31T03:44:52.927Z,4.54
2023-03-31T03:47:19.482Z,4.35
2023-03-31T03:49:46.077Z,3.88
2023-03-31T03:52:12.681Z,3.79
2023-03-31T03:54:39.264Z,3.72
2023-03-31T03:57:07.329Z,4.11
2023-03-31T03:59:33.929Z,3.79
2023-03-31T04:02:00.702Z,4.10
2023-03-31T04:04:27.313Z,4.04
2023-03-31T04:06:54.125Z,3.83
2023-03-31T04:09:20.667Z,3.29
2023-03-31T04:11:47.430Z,3.30
2023-03-31T04:14:14.032Z,3.35
2023-03-31T04:16:40.841Z,3.08
2023-03-31T04:19:08.415Z,3.15
2023-03-31T04:21:35.204Z,3.06
2023-03-31T04:24:04.534Z,3.01
2023-03-31T04:26:43.002Z,3.38
2023-03-31T04:29:12.896Z,3.41
2023-03-31T04:31:42.785Z,3.23
2023-03-31T04:34:15.290Z,2.96
2023-03-31T04:36:48.651Z,2.80
2023-03-31T04:39:30.666Z,3.03
2023-03-31T04:42:01.513Z,2.99
2023-03-31T04:44:29.001Z,2.70
2023-03-31T04:46:56.425Z,3.50
2023-03-31T04:49:23.019Z,3.28
2023-03-31T04:51:50.293Z,3.24
2023-03-31T04:54:17.060Z,3.71
2023-03-31T04:56:43.776Z,3.65
2023-03-31T04:59:11.183Z,3.84
2023-03-31T05:01:37.896Z,4.06
2023-03-31T05:04:05.398Z,3.97
2023-03-31T05:06:32.396Z,4.12
2023-03-31T05:08:58.986Z,4.37
2023-03-31T05:11:25.925Z,4.17
2023-03-31T05:13:52.478Z,4.03
2023-03-31T05:16:19.085Z,4.32
2023-03-31T05:18:46.475Z,3.52
2023-03-31T05:21:16.291Z,3.79
2023-03-31T05:23:44.039Z,3.73
2023-03-31T05:26:11.146Z,3.47
2023-03-31T05:28:38.451Z,3.61
2023-03-31T05:31:07.077Z,3.51
2023-03-31T05:33:34.883Z,3.44
2023-03-31T05:36:01.532Z,3.55
2023-03-31T05:38:31.669Z,3.38
2023-03-31T05:40:58.579Z,3.85
2023-03-31T05:43:25.556Z,3.77
2023-03-31T05:45:52.327Z,3.66
2023-03-31T05:48:19.162Z,3.53
2023-03-31T05:50:45.873Z,3.20
2023-03-31T05:53:12.508Z,3.15
2023-03-31T05:55:39.718Z,3.00
2023-03-31T05:58:06.903Z,2.99
2023-03-31T06:00:33.904Z,3.23
2023-03-31T06:03:00.549Z,3.22
2023-03-31T06:05:27.858Z,3.04
2023-03-31T06:07:54.463Z,3.26
2023-03-31T06:10:21.641Z,3.04
2023-03-31T06:12:48.404Z,3.01
2023-03-31T06:15:16.224Z,3.14
2023-03-31T06:17:42.877Z,3.07
2023-03-31T06:20:24.000Z,3.00
2023-03-31T06:22:53.587Z,3.07
2023-03-31T06:25:20.539Z,3.01
2023-03-31T06:27:47.894Z,2.70
2023-03-31T06:30:14.598Z,2.86
2023-03-31T06:32:41.347Z,2.89
2023-03-31T06:35:08.335Z,2.76
2023-03-31T06:37:34.933Z,2.62
2023-03-31T06:40:01.517Z,2.51
2023-03-31T06:42:28.139Z,2.48
2023-03-31T06:44:55.841Z,2.26
2023-03-31T06:47:22.736Z,2.77
2023-03-31T06:49:49.643Z,2.38
2023-03-31T06:52:16.634Z,2.19
2023-03-31T06:54:43.353Z,2.04
2023-03-31T06:57:09.999Z,2.01
2023-03-31T06:59:36.683Z,2.19
2023-03-31T07:02:03.739Z,2.29
2023-03-31T07:04:30.654Z,2.38
2023-03-31T07:06:58.875Z,2.24
2023-03-31T07:09:25.717Z,2.09
2023-03-31T07:11:52.346Z,2.03
2023-03-31T07:14:18.979Z,1.92
2023-03-31T07:16:45.780Z,2.15
2023-03-31T07:19:12.765Z,1.93
2023-03-31T07:21:39.380Z,2.21
2023-03-31T07:24:06.072Z,2.25
2023-03-31T07:26:33.259Z,1.93
2023-03-31T07:28:59.945Z,2.10
2023-03-31T07:31:26.636Z,2.16
2023-03-31T07:33:53.321Z,2.13
2023-03-31T07:36:20.417Z,2.13
2023-03-31T07:38:49.108Z,2.18
2023-03-31T07:41:18.705Z,2.05
2023-03-31T07:43:46.391Z,1.64
2023-03-31T07:46:23.913Z,1.85
2023-03-31T07:48:51.483Z,1.94
2023-03-31T07:51:21.429Z,1.97
2023-03-31T07:53:52.483Z,2.06
2023-03-31T07:56:22.977Z,1.99
2023-03-31T07:58:51.658Z,2.09
2023-03-31T08:01:21.086Z,2.10
2023-03-31T08:03:49.009Z,2.23
2023-03-31T08:06:23.736Z,2.24
2023-03-31T08:08:51.153Z,2.27
2023-03-31T08:11:21.139Z,2.42
2023-03-31T08:13:48.428Z,2.19
2023-03-31T08:16:15.093Z,2.25
2023-03-31T08:18:41.921Z,2.17
2023-03-31T08:21:09.788Z,1.92
2023-03-31T08:23:37.149Z,2.17
2023-03-31T08:26:18.358Z,2.09
2023-03-31T08:28:48.558Z,2.19
2023-03-31T08:31:18.749Z,2.05
2023-03-31T08:33:46.930Z,2.06
2023-03-31T08:36:14.167Z,2.17
2023-03-31T08:38:46.071Z,2.20
2023-03-31T08:41:24.909Z,2.35
2023-03-31T08:43:57.000Z,2.35
2023-03-31T08:46:24.286Z,2.34
2023-03-31T08:48:57.671Z,2.82
2023-03-31T08:51:29.345Z,2.91
2023-03-31T08:54:03.581Z,2.99
2023-03-31T08:56:39.167Z,3.27
2023-03-31T08:59:07.016Z,3.45
2023-03-31T09:01:56.818Z,3.80
2023-03-31T09:04:32.769Z,4.11
2023-03-31T09:07:17.700Z,4.56
2023-03-31T09:10:16.302Z,4.59
2023-03-31T09:13:04.625Z,5.17
2023-03-31T09:15:53.073Z,5.50
2023-03-31T09:18:26.886Z,5.54
2023-03-31T09:21:16.226Z,5.42
2023-03-31T09:23:57.516Z,5.81
2023-03-31T09:26:34.379Z,5.91
2023-03-31T09:29:07.236Z,6.43
2023-03-31T09:31:35.579Z,6.71
2023-03-31T09:34:14.500Z,6.54
2023-03-31T09:36:41.463Z,6.41
2023-03-31T09:39:14.604Z,6.74
2023-03-31T09:41:46.225Z,6.90
2023-03-31T09:44:28.340Z,6.19
2023-03-31T09:46:56.150Z,6.53
2023-03-31T09:49:28.210Z,6.46
2023-03-31T09:52:05.093Z,6.21
2023-03-31T09:54:40.848Z,6.73
2023-03-31T09:57:15.312Z,6.71
2023-03-31T09:59:44.059Z,6.79
2023-03-31T10:02:28.662Z,6.47
2023-03-31T10:04:55.454Z,6.09
2023-03-31T10:07:24.326Z,6.08
2023-03-31T10:09:54.217Z,6.38
2023-03-31T10:12:26.609Z,5.89
2023-03-31T10:15:02.686Z,6.50
2023-03-31T10:17:29.525Z,6.05
2023-03-31T10:20:07.166Z,6.08
2023-03-31T10:22:35.607Z,6.10
2023-03-31T10:25:28.757Z,5.58
2023-03-31T10:27:57.404Z,5.57
2023-03-31T10:30:26.854Z,5.62
2023-03-31T10:32:54.831Z,6.13
2023-03-31T10:35:23.449Z,6.00
2023-03-31T10:37:54.711Z,6.10
2023-03-31T10:40:25.470Z,6.47
2023-03-31T10:43:09.337Z,6.97
2023-03-31T10:45:49.325Z,6.17
2023-03-31T10:48:19.130Z,6.25
2023-03-31T10:50:46.339Z,5.90
2023-03-31T10:53:15.849Z,5.96
2023-03-31T10:56:09.857Z,5.33
2023-03-31T10:59:05.928Z,5.56
2023-03-31T11:02:00.725Z,5.83
2023-03-31T11:04:45.690Z,6.12
2023-03-31T11:07:17.461Z,6.08
2023-03-31T11:09:43.993Z,6.41
2023-03-31T11:12:37.803Z,5.60
2023-03-31T11:15:23.250Z,5.69
2023-03-31T11:18:06.944Z,5.90
2023-03-31T11:21:11.256Z,6.12
2023-03-31T11:23:42.342Z,6.11
2023-03-31T11:26:29.852Z,6.06
2023-03-31T11:29:19.672Z,5.99
2023-03-31T11:32:04.765Z,6.37
2023-03-31T11:34:53.162Z,6.57
2023-03-31T11:37:35.501Z,6.22
2023-03-31T11:40:07.739Z,6.91
2023-03-31T11:42:42.317Z,6.84
2023-03-31T11:45:32.636Z,6.17
2023-03-31T11:48:16.695Z,6.49
2023-03-31T11:50:47.146Z,6.16
2023-03-31T11:53:29.812Z,6.89
2023-03-31T11:55:59.308Z,7.09
2023-03-31T11:58:41.026Z,6.92
2023-03-31T12:01:26.170Z,6.91
2023-03-31T12:04:04.476Z,6.69
2023-03-31T12:06:36.637Z,7.32
2023-03-31T12:09:12.018Z,6.45
2023-03-31T12:11:44.443Z,7.27
2023-03-31T12:14:33.267Z,7.29
2023-03-31T12:17:13.446Z,7.91
2023-03-31T12:19:55.253Z,7.39
2023-03-31T12:22:21.771Z,7.96
2023-03-31T12:24:48.513Z,7.28
2023-03-31T12:27:21.920Z,6.64
2023-03-31T12:30:10.297Z,6.76
2023-03-31T12:32:42.088Z,5.42
2023-03-31T12:35:27.438Z,6.18
2023-03-31T12:38:28.333Z,5.84
2023-03-31T12:41:15.751Z,6.79
2023-03-31T12:44:21.164Z,6.54
2023-03-31T12:47:15.261Z,6.60
2023-03-31T12:49:47.880Z,6.60
2023-03-31T12:52:27.975Z,6.73
2023-03-31T12:55:21.436Z,6.20
2023-03-31T12:57:48.283Z,5.80
2023-03-31T13:00:26.724Z,5.32
2023-03-31T13:03:30.757Z,6.11
2023-03-31T13:05:57.358Z,6.43
2023-03-31T13:08:56.114Z,6.30
2023-03-31T13:11:36.085Z,6.12
2023-03-31T13:14:20.230Z,7.14
2023-03-31T13:16:48.986Z,6.32
2023-03-31T13:19:28.407Z,6.43
2023-03-31T13:21:58.060Z,6.03
2023-03-31T13:24:26.752Z,6.56
2023-03-31T13:26:56.682Z,6.05
2023-03-31T13:29:54.034Z,5.76
2023-03-31T13:32:23.316Z,5.45
2023-03-31T13:35:22.094Z,5.30
2023-03-31T13:38:17.353Z,5.14
2023-03-31T13:41:21.646Z,4.90
2023-03-31T13:44:12.314Z,4.49
2023-03-31T13:46:58.108Z,5.20
2023-03-31T13:49:27.584Z,5.39
2023-03-31T13:52:03.958Z,5.03
2023-03-31T13:54:43.742Z,4.84
2023-03-31T13:57:29.447Z,5.32
2023-03-31T14:00:12.579Z,4.80
2023-03-31T14:02:45.388Z,4.67
2023-03-31T14:05:56.807Z,4.79
2023-03-31T14:08:26.584Z,4.76
2023-03-31T14:10:53.383Z,4.62
2023-03-31T14:13:25.006Z,5.33
2023-03-31T14:15:58.616Z,4.72
2023-03-31T14:18:30.089Z,3.97
2023-03-31T14:21:14.122Z,3.86
2023-03-31T14:24:03.663Z,3.76
2023-03-31T14:26:56.899Z,3.76
2023-03-31T14:29:51.569Z,3.35
2023-03-31T14:33:00.239Z,3.68
2023-03-31T14:35:54.282Z,3.47
2023-03-31T14:38:23.344Z,3.41
2023-03-31T14:41:01.105Z,3.33
2023-03-31T14:43:33.559Z,3.37
2023-03-31T14:46:08.770Z,3.54
2023-03-31T14:48:45.941Z,3.21
2023-03-31T14:51:16.297Z,2.93
2023-03-31T14:53:45.741Z,3.39
2023-03-31T14:56:26.022Z,3.11
2023-03-31T14:58:54.380Z,2.81
2023-03-31T15:01:35.586Z,2.80
2023-03-31T15:04:10.624Z,2.52
2023-03-31T15:06:39.957Z,2.58
2023-03-31T15:09:07.248Z,2.64
2023-03-31T15:11:34.996Z,2.45
2023-03-31T15:14:05.403Z,2.41
2023-03-31T15:16:32.633Z,2.48
2023-03-31T15:19:03.460Z,2.34
2023-03-31T15:21:32.606Z,2.04
2023-03-31T15:23:59.272Z,2.01
2023-03-31T15:26:40.441Z,1.78
2023-03-31T15:29:28.452Z,1.90
2023-03-31T15:31:57.526Z,1.58
2023-03-31T15:34:34.129Z,1.88
2023-03-31T15:37:01.145Z,2.03
2023-03-31T15:39:32.942Z,1.93
2023-03-31T15:42:03.951Z,2.07
2023-03-31T15:44:46.523Z,1.95
2023-03-31T15:47:13.495Z,1.79
2023-03-31T15:49:50.645Z,1.78
2023-03-31T15:52:33.181Z,2.12
2023-03-31T15:55:01.798Z,2.07
2023-03-31T15:57:35.007Z,2.60
2023-03-31T16:00:04.914Z,2.47
2023-03-31T16:02:43.006Z,2.55
2023-03-31T16:05:51.526Z,2.65
2023-03-31T16:08:25.412Z,2.72
2023-03-31T16:11:04.382Z,2.75
2023-03-31T16:13:33.944Z,2.89
2023-03-31T16:16:01.220Z,2.76
2023-03-31T16:18:36.696Z,2.71
2023-03-31T16:21:08.124Z,2.84
2023-03-31T16:23:40.735Z,2.71
2023-03-31T16:26:08.612Z,2.44
2023-03-31T16:28:38.275Z,2.55
2023-03-31T16:31:42.575Z,2.56
2023-03-31T16:34:12.425Z,2.54
2023-03-31T16:36:39.235Z,2.57
2023-03-31T16:39:06.769Z,2.52
2023-03-31T16:41:35.873Z,2.83
2023-03-31T16:44:03.215Z,2.82
2023-03-31T16:46:29.865Z,2.62
2023-03-31T16:48:56.576Z,2.54
2023-03-31T16:51:23.296Z,2.45
2023-03-31T16:53:49.944Z,2.54
2023-03-31T16:56:16.752Z,2.68
2023-03-31T16:58:43.715Z,2.59
2023-03-31T17:01:13.081Z,3.24
2023-03-31T17:03:41.900Z,4.49
2023-03-31T17:06:12.546Z,3.50
2023-03-31T17:08:39.960Z,3.41
2023-03-31T17:11:12.638Z,3.69
2023-03-31T17:13:41.663Z,2.70
2023-03-31T17:16:19.210Z,3.04
2023-03-31T17:18:53.583Z,2.53
2023-03-31T17:21:20.575Z,3.37
2023-03-31T17:23:47.896Z,2.61
2023-03-31T17:26:15.653Z,2.85
2023-03-31T17:28:43.469Z,2.57
2023-03-31T17:31:14.862Z,2.78
2023-03-31T17:33:41.885Z,2.61
2023-03-31T17:36:09.450Z,2.53
2023-03-31T17:38:36.208Z,2.39
2023-03-31T17:41:04.764Z,2.32
2023-03-31T17:43:31.671Z,2.49
2023-03-31T17:46:09.869Z,2.84
2023-03-31T17:48:39.135Z,3.28
2023-03-31T17:51:13.752Z,3.08
2023-03-31T17:53:42.191Z,2.88
2023-03-31T17:56:09.011Z,3.10
2023-03-31T17:58:35.727Z,3.37
2023-03-31T18:01:05.613Z,3.23
2023-03-31T18:03:33.174Z,2.98
2023-03-31T18:06:07.875Z,2.86
2023-03-31T18:08:35.105Z,3.14
2023-03-31T18:11:03.290Z,3.06
2023-03-31T18:13:30.596Z,3.30
2023-03-31T18:15:58.033Z,3.31
2023-03-31T18:18:26.761Z,3.20
2023-03-31T18:20:53.767Z,3.25
2023-03-31T18:23:20.628Z,3.11
2023-03-31T18:25:47.334Z,3.35
2023-03-31T18:28:16.083Z,3.38
2023-03-31T18:30:43.504Z,3.73
2023-03-31T18:33:12.777Z,4.12
2023-03-31T18:35:39.627Z,4.19
2023-03-31T18:38:07.209Z,4.31
2023-03-31T18:40:33.936Z,4.81
2023-03-31T18:43:00.703Z,4.90
2023-03-31T18:45:28.230Z,4.85
2023-03-31T18:47:55.087Z,5.27
2023-03-31T18:50:23.344Z,5.34
2023-03-31T18:52:54.413Z,5.26
2023-03-31T18:55:22.117Z,5.70
2023-03-31T18:57:49.030Z,5.35
2023-03-31T19:00:16.319Z,5.29
2023-03-31T19:02:43.161Z,5.18
2023-03-31T19:05:09.938Z,5.09
2023-03-31T19:07:36.538Z,5.27
2023-03-31T19:10:03.990Z,5.29
2023-03-31T19:12:30.593Z,4.88
2023-03-31T19:14:58.169Z,5.07
2023-03-31T19:17:24.848Z,5.06
2023-03-31T19:19:51.702Z,4.97
2023-03-31T19:22:18.353Z,5.07
2023-03-31T19:24:45.530Z,5.12
2023-03-31T19:27:12.999Z,6.55
2023-03-31T19:29:39.626Z,6.01
2023-03-31T19:32:06.443Z,4.89
2023-03-31T19:34:33.857Z,4.80
2023-03-31T19:37:02.040Z,5.04
2023-03-31T19:39:28.941Z,4.84
2023-03-31T19:41:55.693Z,4.91
2023-03-31T19:44:22.482Z,4.88
2023-03-31T19:46:49.129Z,5.40
2023-03-31T19:49:15.873Z,5.29
2023-03-31T19:51:42.475Z,4.99
2023-03-31T19:54:11.689Z,5.70
2023-03-31T19:56:39.402Z,5.38
2023-03-31T19:59:06.803Z,5.36
2023-03-31T20:01:33.787Z,5.22
2023-03-31T20:04:00.907Z,5.71
2023-03-31T20:06:30.250Z,6.12
2023-03-31T20:08:59.482Z,5.95
2023-03-31T20:11:28.861Z,6.03
2023-03-31T20:13:55.999Z,6.39
2023-03-31T20:16:25.347Z,6.25
2023-03-31T20:18:54.923Z,6.48
2023-03-31T20:21:23.846Z,6.13
2023-03-31T20:23:51.089Z,6.33
2023-03-31T20:26:24.740Z,6.42
2023-03-31T20:28:52.171Z,6.61
2023-03-31T20:31:21.903Z,7.05
2023-03-31T20:33:49.064Z,7.09
2023-03-31T20:36:18.530Z,7.00
2023-03-31T20:38:47.360Z,7.11
2023-03-31T20:41:15.672Z,7.11
2023-03-31T20:43:42.327Z,7.03
2023-03-31T20:46:09.793Z,7.29
2023-03-31T20:48:49.534Z,6.89
2023-03-31T20:51:18.896Z,7.22
2023-03-31T20:53:51.340Z,7.44
2023-03-31T20:56:21.126Z,7.12
2023-03-31T20:58:49.132Z,7.13
2023-03-31T21:01:18.158Z,7.04
2023-03-31T21:03:45.839Z,7.30
2023-03-31T21:06:14.484Z,6.42
2023-03-31T21:08:50.005Z,6.33
2023-03-31T21:11:17.468Z,6.62
2023-03-31T21:13:45.353Z,6.94
2023-03-31T21:16:12.574Z,6.84
2023-03-31T21:18:39.230Z,6.59
2023-03-31T21:21:09.479Z,6.58
2023-03-31T21:23:36.746Z,6.56
2023-03-31T21:26:05.712Z,6.64
2023-03-31T21:28:36.639Z,6.18
2023-03-31T21:31:05.595Z,6.41
2023-03-31T21:33:34.853Z,6.44
2023-03-31T21:36:01.506Z,6.14
2023-03-31T21:38:28.599Z,6.37
2023-03-31T21:40:58.048Z,6.26
2023-03-31T21:43:25.945Z,6.06
2023-03-31T21:45:57.838Z,6.01
2023-03-31T21:48:26.418Z,6.05
2023-03-31T21:50:54.853Z,6.20
2023-03-31T21:53:23.026Z,6.11
2023-03-31T21:55:55.470Z,6.13
2023-03-31T21:58:23.627Z,5.83
2023-03-31T22:00:50.213Z,6.29
2023-03-31T22:03:27.210Z,5.72
2023-03-31T22:05:56.073Z,5.88
2023-03-31T22:08:23.270Z,5.90
2023-03-31T22:10:51.971Z,5.20
2023-03-31T22:13:19.328Z,4.90
2023-03-31T22:15:46.029Z,4.68
2023-03-31T22:18:12.969Z,4.93
2023-03-31T22:20:40.076Z,4.94
2023-03-31T22:23:06.959Z,4.54
2023-03-31T22:25:33.905Z,4.35
2023-03-31T22:28:01.290Z,4.35
2023-03-31T22:30:28.092Z,4.32
2023-03-31T22:32:55.533Z,4.39
2023-03-31T22:35:22.795Z,4.08
2023-03-31T22:37:49.395Z,4.08
2023-03-31T22:40:16.110Z,4.18
2023-03-31T22:42:42.844Z,4.30
2023-03-31T22:45:09.891Z,3.79
2023-03-31T22:47:36.611Z,3.96
2023-03-31T22:50:04.018Z,3.83
2023-03-31T22:52:30.773Z,4.00
2023-03-31T22:54:57.437Z,4.25
2023-03-31T22:57:24.284Z,4.13
2023-03-31T22:59:51.184Z,4.24
2023-03-31T23:02:17.764Z,4.62
2023-03-31T23:04:44.329Z,4.69
2023-03-31T23:07:10.951Z,4.66
2023-03-31T23:09:37.513Z,4.83
2023-03-31T23:12:04.182Z,5.13
2023-03-31T23:14:30.822Z,5.63
2023-03-31T23:16:57.423Z,5.71
2023-03-31T23:19:24.371Z,6.22
2023-03-31T23:21:51.380Z,6.32
2023-03-31T23:24:19.761Z,6.63
2023-03-31T23:26:47.054Z,6.73
2023-03-31T23:29:13.652Z,7.35
2023-03-31T23:31:40.371Z,7.24
2023-03-31T23:34:07.318Z,7.92
2023-03-31T23:36:34.006Z,8.90
2023-03-31T23:39:00.669Z,9.22
2023-03-31T23:41:27.378Z,9.38
2023-03-31T23:43:55.861Z,9.25
2023-03-31T23:46:24.228Z,9.83
2023-03-31T23:48:50.996Z,10.65
2023-03-31T23:51:18.756Z,10.98
2023-03-31T23:53:45.813Z,11.78
2023-03-31T23:56:14.127Z,11.40
2023-03-31T23:58:42.936Z,12.59
